sensor_id;sensor_type;location;lat;lon;timestamp;pressure;altitude;pressure_sealevel;temperature;humidity
29331;BME280;16331;52.528;13.342;2023-04-25T00:01:57;158514.69;;;10.20;100.00
29331;BME280;16331;52.528;13.342;2023-04-25T00:04:23;158561.28;;;10.38;100.00
29331;BME280;16331;52.528;13.342;2023-04-25T00:06:49;158551.69;;;10.34;100.00
29331;BME280;16331;52.528;13.342;2023-04-25T00:09:18;158554.47;;;10.35;100.00
29331;BME280;16331;52.528;13.342;2023-04-25T00:11:44;158548.97;;;10.33;100.00
29331;BME280;16331;52.528;13.342;2023-04-25T00:14:10;158521.53;;;10.23;100.00
29331;BME280;16331;52.528;13.342;2023-04-25T00:16:37;158535.25;;;10.28;100.00
29331;BME280;16331;52.528;13.342;2023-04-25T00:19:03;158540.75;;;10.30;100.00
29331;BME280;16331;52.528;13.342;2023-04-25T00:21:29;158575.03;;;10.43;100.00
29331;BME280;16331;52.528;13.342;2023-04-25T00:23:57;158502.34;;;10.16;100.00
29331;BME280;16331;52.528;13.342;2023-04-25T00:26:23;158496.84;;;10.14;100.00
29331;BME280;16331;52.528;13.342;2023-04-25T00:28:49;158483.13;;;10.09;100.00
29331;BME280;16331;52.528;13.342;2023-04-25T00:31:15;158483.13;;;10.09;100.00
29331;BME280;16331;52.528;13.342;2023-04-25T00:33:45;158480.41;;;10.08;100.00
29331;BME280;16331;52.528;13.342;2023-04-25T00:36:11;158528.41;;;10.26;100.00
29331;BME280;16331;52.528;13.342;2023-04-25T00:38:39;158518.78;;;10.22;100.00
29331;BME280;16331;52.528;13.342;2023-04-25T00:41:07;158472.13;;;10.05;100.00
29331;BME280;16331;52.528;13.342;2023-04-25T00:43:33;158495.47;;;10.13;100.00
29331;BME280;16331;52.528;13.342;2023-04-25T00:46:00;158520.19;;;10.23;100.00
29331;BME280;16331;52.528;13.342;2023-04-25T00:48:27;158540.75;;;10.30;100.00
29331;BME280;16331;52.528;13.342;2023-04-25T00:50:55;158561.28;;;10.38;100.00
29331;BME280;16331;52.528;13.342;2023-04-25T00:53:23;158514.69;;;10.20;100.00
29331;BME280;16331;52.528;13.342;2023-04-25T00:55:51;158538.00;;;10.29;100.00
29331;BME280;16331;52.528;13.342;2023-04-25T00:58:22;158505.06;;;10.17;100.00
29331;BME280;16331;52.528;13.342;2023-04-25T01:00:50;158491.34;;;10.12;100.00
29331;BME280;16331;52.528;13.342;2023-04-25T01:03:18;158510.56;;;10.19;100.00
29331;BME280;16331;52.528;13.342;2023-04-25T01:05:46;158536.63;;;10.29;100.00
29331;BME280;16331;52.528;13.342;2023-04-25T01:08:14;158531.13;;;10.27;100.00
29331;BME280;16331;52.528;13.342;2023-04-25T01:10:40;158469.34;;;10.04;100.00
29331;BME280;16331;52.528;13.342;2023-04-25T01:13:07;158503.69;;;10.16;100.00
29331;BME280;16331;52.528;13.342;2023-04-25T01:15:33;158502.34;;;10.16;100.00
29331;BME280;16331;52.528;13.342;2023-04-25T01:18:01;158513.28;;;10.20;100.00
29331;BME280;16331;52.528;13.342;2023-04-25T01:20:29;158499.56;;;10.15;100.00
29331;BME280;16331;52.528;13.342;2023-04-25T01:22:58;158480.41;;;10.08;100.00
29331;BME280;16331;52.528;13.342;2023-04-25T01:25:25;158527.03;;;10.25;100.00
29331;BME280;16331;52.528;13.342;2023-04-25T01:27:51;158465.25;;;10.02;100.00
29331;BME280;16331;52.528;13.342;2023-04-25T01:30:18;158496.84;;;10.14;100.00
29331;BME280;16331;52.528;13.342;2023-04-25T01:32:44;158505.06;;;10.17;100.00
29331;BME280;16331;52.528;13.342;2023-04-25T01:35:12;158492.75;;;10.12;100.00
29331;BME280;16331;52.528;13.342;2023-04-25T01:37:42;158518.78;;;10.22;100.00
29331;BME280;16331;52.528;13.342;2023-04-25T01:40:10;158559.97;;;10.37;100.00
29331;BME280;16331;52.528;13.342;2023-04-25T01:42:39;158535.25;;;10.28;100.00
29331;BME280;16331;52.528;13.342;2023-04-25T01:45:06;158502.34;;;10.16;100.00
29331;BME280;16331;52.528;13.342;2023-04-25T01:47:34;158474.84;;;10.06;100.00
29331;BME280;16331;52.528;13.342;2023-04-25T01:50:04;158459.75;;;10.00;100.00
29331;BME280;16331;52.528;13.342;2023-04-25T01:52:30;158469.34;;;10.04;100.00
29331;BME280;16331;52.528;13.342;2023-04-25T01:54:59;158480.41;;;10.08;100.00
29331;BME280;16331;52.528;13.342;2023-04-25T01:57:26;158503.69;;;10.16;100.00
29331;BME280;16331;52.528;13.342;2023-04-25T01:59:53;158479.03;;;10.07;100.00
29331;BME280;16331;52.528;13.342;2023-04-25T02:02:23;158507.78;;;10.18;100.00
29331;BME280;16331;52.528;13.342;2023-04-25T02:04:49;158444.69;;;9.95;100.00
29331;BME280;16331;52.528;13.342;2023-04-25T02:07:15;158446.09;;;9.95;100.00
29331;BME280;16331;52.528;13.342;2023-04-25T02:09:41;158450.19;;;9.97;100.00
29331;BME280;16331;52.528;13.342;2023-04-25T02:12:09;158474.84;;;10.06;100.00
29331;BME280;16331;52.528;13.342;2023-04-25T02:14:35;158457.03;;;9.99;100.00
29331;BME280;16331;52.528;13.342;2023-04-25T02:17:02;158436.47;;;9.92;100.00
29331;BME280;16331;52.528;13.342;2023-04-25T02:19:30;158459.75;;;10.00;100.00
29331;BME280;16331;52.528;13.342;2023-04-25T02:21:56;158424.16;;;9.87;100.00
29331;BME280;16331;52.528;13.342;2023-04-25T02:24:24;158414.53;;;9.84;100.00
29331;BME280;16331;52.528;13.342;2023-04-25T02:26:50;158430.97;;;9.90;100.00
29331;BME280;16331;52.528;13.342;2023-04-25T02:29:17;158473.47;;;10.05;100.00
29331;BME280;16331;52.528;13.342;2023-04-25T02:31:43;158424.16;;;9.87;100.00
29331;BME280;16331;52.528;13.342;2023-04-25T02:34:09;158406.31;;;9.81;100.00
29331;BME280;16331;52.528;13.342;2023-04-25T02:36:36;158420.03;;;9.86;100.00
29331;BME280;16331;52.528;13.342;2023-04-25T02:39:02;158420.03;;;9.86;100.00
29331;BME280;16331;52.528;13.342;2023-04-25T02:41:29;158377.50;;;9.70;100.00
29331;BME280;16331;52.528;13.342;2023-04-25T02:43:55;158400.81;;;9.79;100.00
29331;BME280;16331;52.528;13.342;2023-04-25T02:46:23;158414.53;;;9.84;100.00
29331;BME280;16331;52.528;13.342;2023-04-25T02:48:49;158403.53;;;9.80;100.00
29331;BME280;16331;52.528;13.342;2023-04-25T02:51:15;158450.19;;;9.97;100.00
29331;BME280;16331;52.528;13.342;2023-04-25T02:53:42;158433.69;;;9.91;100.00
29331;BME280;16331;52.528;13.342;2023-04-25T02:56:08;158378.88;;;9.71;100.00
29331;BME280;16331;52.528;13.342;2023-04-25T02:58:34;158403.53;;;9.80;100.00
29331;BME280;16331;52.528;13.342;2023-04-25T03:01:02;158409.03;;;9.82;100.00
29331;BME280;16331;52.528;13.342;2023-04-25T03:03:28;158422.75;;;9.87;100.00
29331;BME280;16331;52.528;13.342;2023-04-25T03:05:54;158485.84;;;10.10;100.00
29331;BME280;16331;52.528;13.342;2023-04-25T03:08:20;158422.75;;;9.87;100.00
29331;BME280;16331;52.528;13.342;2023-04-25T03:10:46;158367.91;;;9.67;100.00
29331;BME280;16331;52.528;13.342;2023-04-25T03:13:13;158417.25;;;9.85;100.00
29331;BME280;16331;52.528;13.342;2023-04-25T03:15:39;158422.75;;;9.87;100.00
29331;BME280;16331;52.528;13.342;2023-04-25T03:18:06;158366.56;;;9.66;100.00
29331;BME280;16331;52.528;13.342;2023-04-25T03:20:32;158398.09;;;9.78;100.00
29331;BME280;16331;52.528;13.342;2023-04-25T03:22:58;158414.53;;;9.84;100.00
29331;BME280;16331;52.528;13.342;2023-04-25T03:25:24;158443.31;;;9.94;100.00
29331;BME280;16331;52.528;13.342;2023-04-25T03:27:52;158461.13;;;10.01;100.00
29331;BME280;16331;52.528;13.342;2023-04-25T03:30:18;158481.75;;;10.08;100.00
29331;BME280;16331;52.528;13.342;2023-04-25T03:32:44;158422.75;;;9.87;100.00
29331;BME280;16331;52.528;13.342;2023-04-25T03:35:11;158420.03;;;9.86;100.00
29331;BME280;16331;52.528;13.342;2023-04-25T03:37:37;158433.69;;;9.91;100.00
29331;BME280;16331;52.528;13.342;2023-04-25T03:40:03;158376.16;;;9.70;100.00
29331;BME280;16331;52.528;13.342;2023-04-25T03:42:30;158425.47;;;9.88;100.00
29331;BME280;16331;52.528;13.342;2023-04-25T03:44:56;158439.19;;;9.93;100.00
29331;BME280;16331;52.528;13.342;2023-04-25T03:47:22;158418.66;;;9.85;100.00
29331;BME280;16331;52.528;13.342;2023-04-25T03:49:53;158424.16;;;9.87;100.00
29331;BME280;16331;52.528;13.342;2023-04-25T03:52:19;158446.09;;;9.95;100.00
29331;BME280;16331;52.528;13.342;2023-04-25T03:54:47;158391.22;;;9.75;100.00
29331;BME280;16331;52.528;13.342;2023-04-25T03:57:13;158435.09;;;9.91;100.00
29331;BME280;16331;52.528;13.342;2023-04-25T03:59:40;158430.97;;;9.90;100.00
29331;BME280;16331;52.528;13.342;2023-04-25T04:02:06;158417.25;;;9.85;100.00
29331;BME280;16331;52.528;13.342;2023-04-25T04:04:34;158369.28;;;9.67;100.00
29331;BME280;16331;52.528;13.342;2023-04-25T04:07:02;158385.72;;;9.73;100.00
29331;BME280;16331;52.528;13.342;2023-04-25T04:09:28;158403.53;;;9.80;100.00
29331;BME280;16331;52.528;13.342;2023-04-25T04:11:55;158468.03;;;10.03;100.00
29331;BME280;16331;52.528;13.342;2023-04-25T04:14:22;158381.59;;;9.72;100.00
29331;BME280;16331;52.528;13.342;2023-04-25T04:16:48;158426.88;;;9.88;100.00
29331;BME280;16331;52.528;13.342;2023-04-25T04:19:15;158366.56;;;9.66;100.00
29331;BME280;16331;52.528;13.342;2023-04-25T04:21:41;158398.09;;;9.78;100.00
29331;BME280;16331;52.528;13.342;2023-04-25T04:24:07;158392.59;;;9.76;100.00
29331;BME280;16331;52.528;13.342;2023-04-25T04:26:33;158395.31;;;9.77;100.00
29331;BME280;16331;52.528;13.342;2023-04-25T04:29:00;158403.53;;;9.80;100.00
29331;BME280;16331;52.528;13.342;2023-04-25T04:31:28;158400.81;;;9.79;100.00
29331;BME280;16331;52.528;13.342;2023-04-25T04:33:56;158384.38;;;9.73;100.00
29331;BME280;16331;52.528;13.342;2023-04-25T04:36:23;158372.00;;;9.68;100.00
29331;BME280;16331;52.528;13.342;2023-04-25T04:38:50;158344.63;;;9.58;100.00
29331;BME280;16331;52.528;13.342;2023-04-25T04:41:16;158376.16;;;9.70;100.00
29331;BME280;16331;52.528;13.342;2023-04-25T04:43:42;158428.25;;;9.89;100.00
29331;BME280;16331;52.528;13.342;2023-04-25T04:46:09;158459.75;;;10.00;100.00
29331;BME280;16331;52.528;13.342;2023-04-25T04:48:36;158455.63;;;9.99;100.00
29331;BME280;16331;52.528;13.342;2023-04-25T04:51:03;158441.97;;;9.94;100.00
29331;BME280;16331;52.528;13.342;2023-04-25T04:53:30;158480.41;;;10.08;100.00
29331;BME280;16331;52.528;13.342;2023-04-25T04:55:56;158507.78;;;10.18;100.00
29331;BME280;16331;52.528;13.342;2023-04-25T04:58:23;158511.97;;;10.19;100.00
29331;BME280;16331;52.528;13.342;2023-04-25T05:00:50;158511.97;;;10.19;100.00
29331;BME280;16331;52.528;13.342;2023-04-25T05:03:16;158516.06;;;10.21;100.00
29331;BME280;16331;52.528;13.342;2023-04-25T05:05:42;158538.00;;;10.29;100.00
29331;BME280;16331;52.528;13.342;2023-04-25T05:08:28;158507.78;;;10.18;100.00
29331;BME280;16331;52.528;13.342;2023-04-25T05:10:55;158499.56;;;10.15;100.00
29331;BME280;16331;52.528;13.342;2023-04-25T05:13:22;158465.25;;;10.02;100.00
29331;BME280;16331;52.528;13.342;2023-04-25T05:15:49;158499.56;;;10.15;100.00
29331;BME280;16331;52.528;13.342;2023-04-25T05:18:27;158525.63;;;10.24;100.00
29331;BME280;16331;52.528;13.342;2023-04-25T05:21:03;158529.75;;;10.26;100.00
29331;BME280;16331;52.528;13.342;2023-04-25T05:23:29;158528.41;;;10.26;100.00
29331;BME280;16331;52.528;13.342;2023-04-25T05:25:57;158441.97;;;9.94;100.00
29331;BME280;16331;52.528;13.342;2023-04-25T05:28:24;158444.69;;;9.95;100.00
29331;BME280;16331;52.528;13.342;2023-04-25T05:30:50;158469.34;;;10.04;100.00
29331;BME280;16331;52.528;13.342;2023-04-25T05:33:18;158413.16;;;9.83;100.00
29331;BME280;16331;52.528;13.342;2023-04-25T05:35:45;158387.09;;;9.74;100.00
29331;BME280;16331;52.528;13.342;2023-04-25T05:38:11;158450.19;;;9.97;100.00
29331;BME280;16331;52.528;13.342;2023-04-25T05:40:38;158522.91;;;10.23;100.00
29331;BME280;16331;52.528;13.342;2023-04-25T05:43:04;158531.13;;;10.27;100.00
29331;BME280;16331;52.528;13.342;2023-04-25T05:45:30;158441.97;;;9.94;100.00
29331;BME280;16331;52.528;13.342;2023-04-25T05:47:56;158480.41;;;10.08;100.00
29331;BME280;16331;52.528;13.342;2023-04-25T05:50:24;158487.25;;;10.10;100.00
29331;BME280;16331;52.528;13.342;2023-04-25T05:52:51;158458.41;;;10.00;100.00
29331;BME280;16331;52.528;13.342;2023-04-25T05:55:17;158480.41;;;10.08;100.00
29331;BME280;16331;52.528;13.342;2023-04-25T05:57:44;158496.84;;;10.14;100.00
29331;BME280;16331;52.528;13.342;2023-04-25T06:00:15;158444.69;;;9.95;100.00
29331;BME280;16331;52.528;13.342;2023-04-25T06:02:46;158440.59;;;9.93;100.00
29331;BME280;16331;52.528;13.342;2023-04-25T06:05:23;158588.75;;;10.48;100.00
29331;BME280;16331;52.528;13.342;2023-04-25T06:07:49;158649.09;;;10.70;100.00
29331;BME280;16331;52.528;13.342;2023-04-25T06:10:15;158675.16;;;10.79;100.00
29331;BME280;16331;52.528;13.342;2023-04-25T06:13:05;158712.25;;;10.93;100.00
29331;BME280;16331;52.528;13.342;2023-04-25T06:15:32;158683.41;;;10.82;100.00
29331;BME280;16331;52.528;13.342;2023-04-25T06:17:59;158610.69;;;10.56;100.00
29331;BME280;16331;52.528;13.342;2023-04-25T06:20:26;158579.13;;;10.44;100.00
29331;BME280;16331;52.528;13.342;2023-04-25T06:22:52;158557.19;;;10.36;100.00
29331;BME280;16331;52.528;13.342;2023-04-25T06:25:19;158511.97;;;10.19;100.00
29331;BME280;16331;52.528;13.342;2023-04-25T06:27:47;158505.06;;;10.17;100.00
29331;BME280;16331;52.528;13.342;2023-04-25T06:30:13;158479.03;;;10.07;100.00
29331;BME280;16331;52.528;13.342;2023-04-25T06:32:40;158485.84;;;10.10;100.00
29331;BME280;16331;52.528;13.342;2023-04-25T06:35:06;158513.28;;;10.20;100.00
29331;BME280;16331;52.528;13.342;2023-04-25T06:37:34;158522.91;;;10.23;100.00
29331;BME280;16331;52.528;13.342;2023-04-25T06:40:00;158547.56;;;10.33;100.00
29331;BME280;16331;52.528;13.342;2023-04-25T06:42:43;158572.28;;;10.42;100.00
29331;BME280;16331;52.528;13.342;2023-04-25T06:45:10;158527.03;;;10.25;100.00
29331;BME280;16331;52.528;13.342;2023-04-25T06:47:37;158575.03;;;10.43;100.00
29331;BME280;16331;52.528;13.342;2023-04-25T06:50:05;158592.84;;;10.49;100.00
29331;BME280;16331;52.528;13.342;2023-04-25T06:52:31;158543.47;;;10.31;100.00
29331;BME280;16331;52.528;13.342;2023-04-25T06:54:58;158558.56;;;10.37;100.00
29331;BME280;16331;52.528;13.342;2023-04-25T06:57:24;158562.69;;;10.38;100.00
29331;BME280;16331;52.528;13.342;2023-04-25T06:59:51;158557.19;;;10.36;100.00
29331;BME280;16331;52.528;13.342;2023-04-25T07:02:17;158609.31;;;10.55;100.00
29331;BME280;16331;52.528;13.342;2023-04-25T07:04:48;158603.88;;;10.53;100.00
29331;BME280;16331;52.528;13.342;2023-04-25T07:07:14;158554.47;;;10.35;100.00
29331;BME280;16331;52.528;13.342;2023-04-25T07:09:40;158561.28;;;10.38;100.00
29331;BME280;16331;52.528;13.342;2023-04-25T07:12:06;158496.84;;;10.14;100.00
29331;BME280;16331;52.528;13.342;2023-04-25T07:14:32;158361.06;;;9.64;100.00
29331;BME280;16331;52.528;13.342;2023-04-25T07:16:59;158374.78;;;9.69;100.00
29331;BME280;16331;52.528;13.342;2023-04-25T07:19:25;158441.97;;;9.94;100.00
29331;BME280;16331;52.528;13.342;2023-04-25T07:21:52;158488.63;;;10.11;100.00
29331;BME280;16331;52.528;13.342;2023-04-25T07:24:19;158520.19;;;10.23;100.00
29331;BME280;16331;52.528;13.342;2023-04-25T07:26:45;158474.84;;;10.06;100.00
29331;BME280;16331;52.528;13.342;2023-04-25T07:29:13;158450.19;;;9.97;100.00
29331;BME280;16331;52.528;13.342;2023-04-25T07:31:40;158463.84;;;10.02;100.00
29331;BME280;16331;52.528;13.342;2023-04-25T07:34:06;158510.56;;;10.19;100.00
29331;BME280;16331;52.528;13.342;2023-04-25T07:36:32;158513.28;;;10.20;100.00
29331;BME280;16331;52.528;13.342;2023-04-25T07:38:59;158543.47;;;10.31;100.00
29331;BME280;16331;52.528;13.342;2023-04-25T07:41:27;158518.78;;;10.22;100.00
29331;BME280;16331;52.528;13.342;2023-04-25T07:43:56;158581.91;;;10.45;100.00
29331;BME280;16331;52.528;13.342;2023-04-25T07:46:22;158550.34;;;10.34;100.00
29331;BME280;16331;52.528;13.342;2023-04-25T07:48:49;158565.41;;;10.39;100.00
29331;BME280;16331;52.528;13.342;2023-04-25T07:51:15;158635.38;;;10.65;100.00
29331;BME280;16331;52.528;13.342;2023-04-25T07:53:41;158566.78;;;10.40;100.00
29331;BME280;16331;52.528;13.342;2023-04-25T07:56:07;158590.13;;;10.48;100.00
29331;BME280;16331;52.528;13.342;2023-04-25T07:58:33;158580.53;;;10.45;100.00
29331;BME280;16331;52.528;13.342;2023-04-25T08:01:02;158555.78;;;10.36;100.00
29331;BME280;16331;52.528;13.342;2023-04-25T08:03:28;158638.16;;;10.66;100.00
29331;BME280;16331;52.528;13.342;2023-04-25T08:05:55;158701.22;;;10.89;100.00
29331;BME280;16331;52.528;13.342;2023-04-25T08:08:22;158712.25;;;10.93;100.00
29331;BME280;16331;52.528;13.342;2023-04-25T08:10:49;158634.03;;;10.64;100.00
29331;BME280;16331;52.528;13.342;2023-04-25T08:13:15;158639.50;;;10.66;100.00
29331;BME280;16331;52.528;13.342;2023-04-25T08:15:42;158624.44;;;10.61;100.00
29331;BME280;16331;52.528;13.342;2023-04-25T08:18:09;158584.63;;;10.46;100.00
29331;BME280;16331;52.528;13.342;2023-04-25T08:20:55;158599.69;;;10.52;100.00
29331;BME280;16331;52.528;13.342;2023-04-25T08:23:21;158683.41;;;10.82;100.00
29331;BME280;16331;52.528;13.342;2023-04-25T08:25:48;158709.47;;;10.92;100.00
29331;BME280;16331;52.528;13.342;2023-04-25T08:28:15;158782.25;;;11.18;100.00
29331;BME280;16331;52.528;13.342;2023-04-25T08:30:41;158702.63;;;10.89;100.00
29331;BME280;16331;52.528;13.342;2023-04-25T08:33:07;158767.13;;;11.13;100.00
29331;BME280;16331;52.528;13.342;2023-04-25T08:35:33;158771.22;;;11.14;100.00
29331;BME280;16331;52.528;13.342;2023-04-25T08:38:00;158690.28;;;10.85;100.00
29331;BME280;16331;52.528;13.342;2023-04-25T08:40:28;158658.72;;;10.73;100.00
29331;BME280;16331;52.528;13.342;2023-04-25T08:42:57;158706.75;;;10.91;100.00
29331;BME280;16331;52.528;13.342;2023-04-25T08:45:26;158732.81;;;11.00;100.00
29331;BME280;16331;52.528;13.342;2023-04-25T08:47:53;158704.00;;;10.90;100.00
29331;BME280;16331;52.528;13.342;2023-04-25T08:50:20;158746.53;;;11.05;100.00
29331;BME280;16331;52.528;13.342;2023-04-25T08:52:50;158806.94;;;11.27;100.00
29331;BME280;16331;52.528;13.342;2023-04-25T08:55:19;158746.53;;;11.05;100.00
29331;BME280;16331;52.528;13.342;2023-04-25T08:57:46;158749.28;;;11.06;100.00
29331;BME280;16331;52.528;13.342;2023-04-25T09:00:13;158837.13;;;11.38;100.00
29331;BME280;16331;52.528;13.342;2023-04-25T09:02:40;158886.56;;;11.56;100.00
29331;BME280;16331;52.528;13.342;2023-04-25T09:05:08;158853.59;;;11.44;100.00
29331;BME280;16331;52.528;13.342;2023-04-25T09:07:35;158905.88;;;11.63;96.85
29331;BME280;16331;52.528;13.342;2023-04-25T09:10:03;158986.88;;;11.93;95.21
29331;BME280;16331;52.528;13.342;2023-04-25T09:12:30;159010.25;;;12.02;92.42
29331;BME280;16331;52.528;13.342;2023-04-25T09:15:11;158881.06;;;11.54;93.90
29331;BME280;16331;52.528;13.342;2023-04-25T09:17:42;158757.50;;;11.09;96.79
29331;BME280;16331;52.528;13.342;2023-04-25T09:20:14;158859.09;;;11.46;97.09
29331;BME280;16331;52.528;13.342;2023-04-25T09:22:41;158839.91;;;11.39;95.82
29331;BME280;16331;52.528;13.342;2023-04-25T09:25:10;158933.28;;;11.74;96.00
29331;BME280;16331;52.528;13.342;2023-04-25T09:27:53;159058.31;;;12.19;91.84
29331;BME280;16331;52.528;13.342;2023-04-25T09:30:32;159030.84;;;12.09;93.50
29331;BME280;16331;52.528;13.342;2023-04-25T09:33:10;159083.03;;;12.28;85.80
29331;BME280;16331;52.528;13.342;2023-04-25T09:35:38;159192.97;;;12.68;79.73
29331;BME280;16331;52.528;13.342;2023-04-25T09:38:14;159230.13;;;12.82;74.90
29331;BME280;16331;52.528;13.342;2023-04-25T09:40:45;159147.59;;;12.52;72.22
29331;BME280;16331;52.528;13.342;2023-04-25T09:43:22;159092.66;;;12.32;70.24
29331;BME280;16331;52.528;13.342;2023-04-25T09:45:50;159056.94;;;12.19;70.96
29331;BME280;16331;52.528;13.342;2023-04-25T09:48:19;159094.06;;;12.32;71.64
29331;BME280;16331;52.528;13.342;2023-04-25T09:51:10;159147.59;;;12.52;69.71
29331;BME280;16331;52.528;13.342;2023-04-25T09:53:38;159164.13;;;12.58;68.25
29331;BME280;16331;52.528;13.342;2023-04-25T09:56:06;159032.22;;;12.10;69.52
29331;BME280;16331;52.528;13.342;2023-04-25T09:58:33;159015.69;;;12.04;70.31
29331;BME280;16331;52.528;13.342;2023-04-25T10:01:10;159177.84;;;12.63;68.00
29331;BME280;16331;52.528;13.342;2023-04-25T10:03:38;159219.09;;;12.78;66.26
29331;BME280;16331;52.528;13.342;2023-04-25T10:06:12;159151.72;;;12.53;67.76
29331;BME280;16331;52.528;13.342;2023-04-25T10:08:41;159212.25;;;12.75;66.31
29331;BME280;16331;52.528;13.342;2023-04-25T10:11:08;159250.72;;;12.89;67.51
29331;BME280;16331;52.528;13.342;2023-04-25T10:13:36;159380.00;;;13.37;66.49
29331;BME280;16331;52.528;13.342;2023-04-25T10:16:04;159375.88;;;13.35;62.24
29331;BME280;16331;52.528;13.342;2023-04-25T10:18:32;159290.66;;;13.04;61.25
29331;BME280;16331;52.528;13.342;2023-04-25T10:21:01;159160.03;;;12.56;65.18
29331;BME280;16331;52.528;13.342;2023-04-25T10:23:30;159286.53;;;13.02;65.62
29331;BME280;16331;52.528;13.342;2023-04-25T10:25:57;159232.84;;;12.83;66.12
29331;BME280;16331;52.528;13.342;2023-04-25T10:28:24;159118.78;;;12.41;66.57
29331;BME280;16331;52.528;13.342;2023-04-25T10:31:02;159080.31;;;12.27;68.02
29331;BME280;16331;52.528;13.342;2023-04-25T10:33:37;159026.72;;;12.08;67.83
29331;BME280;16331;52.528;13.342;2023-04-25T10:36:18;159067.94;;;12.23;68.72
29331;BME280;16331;52.528;13.342;2023-04-25T10:38:47;159191.59;;;12.68;66.07
29331;BME280;16331;52.528;13.342;2023-04-25T10:41:14;159186.13;;;12.66;66.09
29331;BME280;16331;52.528;13.342;2023-04-25T10:43:48;159271.34;;;12.97;64.89
29331;BME280;16331;52.528;13.342;2023-04-25T10:46:27;159278.25;;;12.99;64.37
29331;BME280;16331;52.528;13.342;2023-04-25T10:48:55;159246.59;;;12.88;64.81
29331;BME280;16331;52.528;13.342;2023-04-25T10:51:24;159276.84;;;12.99;61.38
29331;BME280;16331;52.528;13.342;2023-04-25T10:56:25;159184.75;;;12.65;63.02
29331;BME280;16331;52.528;13.342;2023-04-25T10:58:51;159194.38;;;12.69;62.98
29331;BME280;16331;52.528;13.342;2023-04-25T11:01:24;159172.38;;;12.61;63.95
29331;BME280;16331;52.528;13.342;2023-04-25T11:03:57;159275.44;;;12.98;62.23
29331;BME280;16331;52.528;13.342;2023-04-25T11:08:57;159111.94;;;12.39;64.31
29331;BME280;16331;52.528;13.342;2023-04-25T11:11:26;159087.16;;;12.30;64.15
29331;BME280;16331;52.528;13.342;2023-04-25T11:13:55;158971.78;;;11.88;68.27
29331;BME280;16331;52.528;13.342;2023-04-25T11:16:28;158849.47;;;11.43;73.88
29331;BME280;16331;52.528;13.342;2023-04-25T11:18:57;158741.03;;;11.03;76.03
29331;BME280;16331;52.528;13.342;2023-04-25T11:21:30;158725.97;;;10.98;76.92
29331;BME280;16331;52.528;13.342;2023-04-25T11:24:00;158790.47;;;11.21;74.01
29331;BME280;16331;52.528;13.342;2023-04-25T11:26:30;158747.94;;;11.06;69.11
29331;BME280;16331;52.528;13.342;2023-04-25T11:29:00;158713.56;;;10.93;66.12
29331;BME280;16331;52.528;13.342;2023-04-25T11:31:26;158787.75;;;11.20;64.60
29331;BME280;16331;52.528;13.342;2023-04-25T11:33:54;158853.59;;;11.44;63.16
29331;BME280;16331;52.528;13.342;2023-04-25T11:36:23;158915.44;;;11.67;61.76
29331;BME280;16331;52.528;13.342;2023-04-25T11:38:51;159078.91;;;12.27;58.89
29331;BME280;16331;52.528;13.342;2023-04-25T11:41:19;159144.88;;;12.51;56.78
29331;BME280;16331;52.528;13.342;2023-04-25T11:43:46;159111.94;;;12.39;54.44
29331;BME280;16331;52.528;13.342;2023-04-25T11:46:13;159025.31;;;12.07;54.99
29331;BME280;16331;52.528;13.342;2023-04-25T11:48:43;159098.19;;;12.34;55.78
29331;BME280;16331;52.528;13.342;2023-04-25T11:51:10;159048.69;;;12.16;55.74
29331;BME280;16331;52.528;13.342;2023-04-25T11:53:41;159047.31;;;12.15;57.24
29331;BME280;16331;52.528;13.342;2023-04-25T11:56:11;159024.00;;;12.07;58.57
29331;BME280;16331;52.528;13.342;2023-04-25T11:58:57;159149.00;;;12.52;58.04
29331;BME280;16331;52.528;13.342;2023-04-25T12:01:31;159116.03;;;12.40;57.79
29331;BME280;16331;52.528;13.342;2023-04-25T12:04:09;159081.66;;;12.28;58.76
29331;BME280;16331;52.528;13.342;2023-04-25T12:06:39;159019.88;;;12.05;60.30
29331;BME280;16331;52.528;13.342;2023-04-25T12:09:09;158996.50;;;11.97;61.59
29331;BME280;16331;52.528;13.342;2023-04-25T12:11:55;159002.00;;;11.99;63.05
29331;BME280;16331;52.528;13.342;2023-04-25T12:14:27;158915.44;;;11.67;59.56
29331;BME280;16331;52.528;13.342;2023-04-25T12:16:59;158908.59;;;11.64;58.61
29331;BME280;16331;52.528;13.342;2023-04-25T12:19:26;158868.72;;;11.50;59.16
29331;BME280;16331;52.528;13.342;2023-04-25T12:21:56;158955.28;;;11.82;58.26
29331;BME280;16331;52.528;13.342;2023-04-25T12:24:25;159014.38;;;12.03;55.21
29331;BME280;16331;52.528;13.342;2023-04-25T12:27:03;159209.47;;;12.74;54.63
29331;BME280;16331;52.528;13.342;2023-04-25T12:29:32;159117.38;;;12.41;54.73
29331;BME280;16331;52.528;13.342;2023-04-25T12:32:00;159377.28;;;13.36;53.67
29331;BME280;16331;52.528;13.342;2023-04-25T12:34:28;159340.13;;;13.22;52.60
29331;BME280;16331;52.528;13.342;2023-04-25T12:36:55;159138.03;;;12.48;53.84
29331;BME280;16331;52.528;13.342;2023-04-25T12:39:24;158996.50;;;11.97;56.01
29331;BME280;16331;52.528;13.342;2023-04-25T12:41:51;158930.56;;;11.73;56.98
29331;BME280;16331;52.528;13.342;2023-04-25T12:44:21;158945.66;;;11.78;57.31
29331;BME280;16331;52.528;13.342;2023-04-25T12:46:47;158905.88;;;11.63;58.36